sensor_id;sensor_type;location;lat;lon;timestamp;temperature;humidity
66835;HTU21D;53743;51.100;5.874;2023-04-16T00:00:41;10.44;90.50
66835;HTU21D;53743;51.100;5.874;2023-04-16T00:01:42;10.44;90.13
66835;HTU21D;53743;51.100;5.874;2023-04-16T00:02:43;10.44;90.44
66835;HTU21D;53743;51.100;5.874;2023-04-16T00:03:44;10.42;90.28
66835;HTU21D;53743;51.100;5.874;2023-04-16T00:04:46;10.43;90.35
66835;HTU21D;53743;51.100;5.874;2023-04-16T00:05:47;10.43;90.42
66835;HTU21D;53743;51.100;5.874;2023-04-16T00:06:49;10.44;90.49
66835;HTU21D;53743;51.100;5.874;2023-04-16T00:07:51;10.46;90.56
66835;HTU21D;53743;51.100;5.874;2023-04-16T00:08:53;10.51;90.21
66835;HTU21D;53743;51.100;5.874;2023-04-16T00:09:54;10.49;90.52
66835;HTU21D;53743;51.100;5.874;2023-04-16T00:10:56;10.45;89.97
66835;HTU21D;53743;51.100;5.874;2023-04-16T00:11:57;10.48;89.96
66835;HTU21D;53743;51.100;5.874;2023-04-16T00:12:58;10.46;90.54
66835;HTU21D;53743;51.100;5.874;2023-04-16T00:13:59;10.43;90.38
66835;HTU21D;53743;51.100;5.874;2023-04-16T00:15:01;10.42;90.30
66835;HTU21D;53743;51.100;5.874;2023-04-16T00:16:02;10.42;90.24
66835;HTU21D;53743;51.100;5.874;2023-04-16T00:17:04;10.40;90.47
66835;HTU21D;53743;51.100;5.874;2023-04-16T00:18:04;10.39;90.42
66835;HTU21D;53743;51.100;5.874;2023-04-16T00:19:06;10.37;90.36
66835;HTU21D;53743;51.100;5.874;2023-04-16T00:20:08;10.34;90.47
66835;HTU21D;53743;51.100;5.874;2023-04-16T00:21:11;10.35;90.52
66835;HTU21D;53743;51.100;5.874;2023-04-16T00:22:12;10.35;90.64
66835;HTU21D;53743;51.100;5.874;2023-04-16T00:23:15;10.37;90.82
66835;HTU21D;53743;51.100;5.874;2023-04-16T00:24:16;10.34;90.55
66835;HTU21D;53743;51.100;5.874;2023-04-16T00:25:18;10.36;90.66
66835;HTU21D;53743;51.100;5.874;2023-04-16T00:26:19;10.35;90.83
66835;HTU21D;53743;51.100;5.874;2023-04-16T00:27:21;10.34;90.63
66835;HTU21D;53743;51.100;5.874;2023-04-16T00:28:22;10.34;90.88
66835;HTU21D;53743;51.100;5.874;2023-04-16T00:29:24;10.34;90.93
66835;HTU21D;53743;51.100;5.874;2023-04-16T00:30:28;10.36;90.98
66835;HTU21D;53743;51.100;5.874;2023-04-16T00:31:31;10.37;91.04
66835;HTU21D;53743;51.100;5.874;2023-04-16T00:32:32;10.36;90.92
66835;HTU21D;53743;51.100;5.874;2023-04-16T00:33:34;10.37;91.02
66835;HTU21D;53743;51.100;5.874;2023-04-16T00:34:35;10.35;91.00
66835;HTU21D;53743;51.100;5.874;2023-04-16T00:35:37;10.34;90.85
66835;HTU21D;53743;51.100;5.874;2023-04-16T00:36:38;10.30;90.95
66835;HTU21D;53743;51.100;5.874;2023-04-16T00:37:40;10.30;90.84
66835;HTU21D;53743;51.100;5.874;2023-04-16T00:38:42;10.34;91.00
66835;HTU21D;53743;51.100;5.874;2023-04-16T00:39:44;10.34;91.01
66835;HTU21D;53743;51.100;5.874;2023-04-16T00:40:45;10.31;91.24
66835;HTU21D;53743;51.100;5.874;2023-04-16T00:41:48;10.42;90.31
66835;HTU21D;53743;51.100;5.874;2023-04-16T00:42:50;10.37;90.13
66835;HTU21D;53743;51.100;5.874;2023-04-16T00:43:52;10.35;90.39
66835;HTU21D;53743;51.100;5.874;2023-04-16T00:44:53;10.34;90.50
66835;HTU21D;53743;51.100;5.874;2023-04-16T00:45:55;10.36;90.67
66835;HTU21D;53743;51.100;5.874;2023-04-16T00:46:57;10.38;90.44
66835;HTU21D;53743;51.100;5.874;2023-04-16T00:48:00;10.36;90.95
66835;HTU21D;53743;51.100;5.874;2023-04-16T00:49:01;10.35;90.91
66835;HTU21D;53743;51.100;5.874;2023-04-16T00:50:04;10.37;91.26
66835;HTU21D;53743;51.100;5.874;2023-04-16T00:51:07;10.36;90.60
66835;HTU21D;53743;51.100;5.874;2023-04-16T00:52:10;10.37;91.00
66835;HTU21D;53743;51.100;5.874;2023-04-16T00:53:12;10.34;91.09
66835;HTU21D;53743;51.100;5.874;2023-04-16T00:54:16;10.35;91.17
66835;HTU21D;53743;51.100;5.874;2023-04-16T00:55:19;10.36;91.18
66835;HTU21D;53743;51.100;5.874;2023-04-16T00:56:21;10.36;90.99
66835;HTU21D;53743;51.100;5.874;2023-04-16T00:57:26;10.37;90.93
66835;HTU21D;53743;51.100;5.874;2023-04-16T00:58:29;10.42;90.88
66835;HTU21D;53743;51.100;5.874;2023-04-16T00:59:30;10.42;90.67
66835;HTU21D;53743;51.100;5.874;2023-04-16T01:00:32;10.42;90.86
66835;HTU21D;53743;51.100;5.874;2023-04-16T01:01:32;10.43;91.03
66835;HTU21D;53743;51.100;5.874;2023-04-16T01:02:34;10.43;91.00
66835;HTU21D;53743;51.100;5.874;2023-04-16T01:03:38;10.43;91.10
66835;HTU21D;53743;51.100;5.874;2023-04-16T01:04:40;10.41;90.93
66835;HTU21D;53743;51.100;5.874;2023-04-16T01:05:42;10.42;91.12
66835;HTU21D;53743;51.100;5.874;2023-04-16T01:06:45;10.40;90.93
66835;HTU21D;53743;51.100;5.874;2023-04-16T01:07:46;10.45;90.78
66835;HTU21D;53743;51.100;5.874;2023-04-16T01:08:47;10.38;90.59
66835;HTU21D;53743;51.100;5.874;2023-04-16T01:09:50;10.36;90.88
66835;HTU21D;53743;51.100;5.874;2023-04-16T01:10:52;10.35;91.04
66835;HTU21D;53743;51.100;5.874;2023-04-16T01:11:53;10.31;91.04
66835;HTU21D;53743;51.100;5.874;2023-04-16T01:12:54;10.31;91.19
66835;HTU21D;53743;51.100;5.874;2023-04-16T01:13:55;10.33;91.18
66835;HTU21D;53743;51.100;5.874;2023-04-16T01:14:58;10.35;91.27
66835;HTU21D;53743;51.100;5.874;2023-04-16T01:15:59;10.43;91.20
66835;HTU21D;53743;51.100;5.874;2023-04-16T01:17:01;10.45;90.41
66835;HTU21D;53743;51.100;5.874;2023-04-16T01:18:02;10.38;91.11
66835;HTU21D;53743;51.100;5.874;2023-04-16T01:19:05;10.37;90.62
66835;HTU21D;53743;51.100;5.874;2023-04-16T01:20:07;10.35;90.90
66835;HTU21D;53743;51.100;5.874;2023-04-16T01:21:10;10.33;90.75
66835;HTU21D;53743;51.100;5.874;2023-04-16T01:22:11;10.31;91.22
66835;HTU21D;53743;51.100;5.874;2023-04-16T01:23:13;10.35;91.41
66835;HTU21D;53743;51.100;5.874;2023-04-16T01:24:14;10.37;91.02
66835;HTU21D;53743;51.100;5.874;2023-04-16T01:25:16;10.38;91.22
66835;HTU21D;53743;51.100;5.874;2023-04-16T01:26:17;10.38;91.13
66835;HTU21D;53743;51.100;5.874;2023-04-16T01:27:19;10.38;91.15
66835;HTU21D;53743;51.100;5.874;2023-04-16T01:28:20;10.39;91.02
66835;HTU21D;53743;51.100;5.874;2023-04-16T01:29:22;10.39;91.00
66835;HTU21D;53743;51.100;5.874;2023-04-16T01:30:24;10.40;91.21
66835;HTU21D;53743;51.100;5.874;2023-04-16T01:31:42;10.39;91.46
66835;HTU21D;53743;51.100;5.874;2023-04-16T01:32:51;10.41;91.17
66835;HTU21D;53743;51.100;5.874;2023-04-16T01:33:53;10.43;91.12
66835;HTU21D;53743;51.100;5.874;2023-04-16T01:34:54;10.43;91.25
66835;HTU21D;53743;51.100;5.874;2023-04-16T01:35:56;10.41;91.21
66835;HTU21D;53743;51.100;5.874;2023-04-16T01:36:58;10.37;91.29
66835;HTU21D;53743;51.100;5.874;2023-04-16T01:38:01;10.35;91.43
66835;HTU21D;53743;51.100;5.874;2023-04-16T01:39:03;10.34;91.60
66835;HTU21D;53743;51.100;5.874;2023-04-16T01:40:06;10.35;91.26
66835;HTU21D;53743;51.100;5.874;2023-04-16T01:41:07;10.33;91.61
66835;HTU21D;53743;51.100;5.874;2023-04-16T01:42:09;10.33;91.35
66835;HTU21D;53743;51.100;5.874;2023-04-16T01:43:10;10.33;91.66
66835;HTU21D;53743;51.100;5.874;2023-04-16T01:44:12;10.29;91.50
66835;HTU21D;53743;51.100;5.874;2023-04-16T01:45:13;10.28;91.63
66835;HTU21D;53743;51.100;5.874;2023-04-16T01:46:19;10.27;92.05
66835;HTU21D;53743;51.100;5.874;2023-04-16T01:47:20;10.28;91.90
66835;HTU21D;53743;51.100;5.874;2023-04-16T01:48:25;10.29;92.05
66835;HTU21D;53743;51.100;5.874;2023-04-16T01:49:26;10.29;92.24
66835;HTU21D;53743;51.100;5.874;2023-04-16T01:50:28;10.30;92.01
66835;HTU21D;53743;51.100;5.874;2023-04-16T01:51:29;10.31;92.17
66835;HTU21D;53743;51.100;5.874;2023-04-16T01:52:33;10.26;92.30
66835;HTU21D;53743;51.100;5.874;2023-04-16T01:53:33;10.27;92.30
66835;HTU21D;53743;51.100;5.874;2023-04-16T01:54:35;10.25;92.15
66835;HTU21D;53743;51.100;5.874;2023-04-16T01:55:36;10.25;91.90
66835;HTU21D;53743;51.100;5.874;2023-04-16T01:56:38;10.25;92.52
66835;HTU21D;53743;51.100;5.874;2023-04-16T01:57:39;10.26;92.16
66835;HTU21D;53743;51.100;5.874;2023-04-16T01:58:41;10.21;92.08
66835;HTU21D;53743;51.100;5.874;2023-04-16T01:59:42;10.20;92.32
66835;HTU21D;53743;51.100;5.874;2023-04-16T02:00:44;10.20;92.48
66835;HTU21D;53743;51.100;5.874;2023-04-16T02:01:45;10.23;92.50
66835;HTU21D;53743;51.100;5.874;2023-04-16T02:02:47;10.22;92.53
66835;HTU21D;53743;51.100;5.874;2023-04-16T02:03:55;10.22;92.64
66835;HTU21D;53743;51.100;5.874;2023-04-16T02:04:57;10.21;92.55
66835;HTU21D;53743;51.100;5.874;2023-04-16T02:05:58;10.24;92.23
66835;HTU21D;53743;51.100;5.874;2023-04-16T02:07:02;10.21;92.50
66835;HTU21D;53743;51.100;5.874;2023-04-16T02:08:05;10.22;92.20
66835;HTU21D;53743;51.100;5.874;2023-04-16T02:09:07;10.21;92.29
66835;HTU21D;53743;51.100;5.874;2023-04-16T02:10:08;10.24;92.18
66835;HTU21D;53743;51.100;5.874;2023-04-16T02:11:12;10.22;92.46
66835;HTU21D;53743;51.100;5.874;2023-04-16T02:12:13;10.26;92.43
66835;HTU21D;53743;51.100;5.874;2023-04-16T02:13:15;10.33;92.13
66835;HTU21D;53743;51.100;5.874;2023-04-16T02:14:19;10.30;91.84
66835;HTU21D;53743;51.100;5.874;2023-04-16T02:15:22;10.26;92.06
66835;HTU21D;53743;51.100;5.874;2023-04-16T02:16:24;10.21;92.17
66835;HTU21D;53743;51.100;5.874;2023-04-16T02:17:39;10.18;92.87
66835;HTU21D;53743;51.100;5.874;2023-04-16T02:18:44;10.14;93.07
66835;HTU21D;53743;51.100;5.874;2023-04-16T02:19:48;10.12;93.24
66835;HTU21D;53743;51.100;5.874;2023-04-16T02:20:49;10.09;93.11
66835;HTU21D;53743;51.100;5.874;2023-04-16T02:21:52;10.05;93.27
66835;HTU21D;53743;51.100;5.874;2023-04-16T02:22:53;10.05;93.10
66835;HTU21D;53743;51.100;5.874;2023-04-16T02:23:58;10.04;93.68
66835;HTU21D;53743;51.100;5.874;2023-04-16T02:25:03;10.12;93.35
66835;HTU21D;53743;51.100;5.874;2023-04-16T02:26:05;10.10;93.53
66835;HTU21D;53743;51.100;5.874;2023-04-16T02:27:06;10.08;93.70
66835;HTU21D;53743;51.100;5.874;2023-04-16T02:28:09;10.08;93.56
66835;HTU21D;53743;51.100;5.874;2023-04-16T02:29:13;10.10;93.67
66835;HTU21D;53743;51.100;5.874;2023-04-16T02:30:20;10.12;93.57
66835;HTU21D;53743;51.100;5.874;2023-04-16T02:31:21;10.09;93.75
66835;HTU21D;53743;51.100;5.874;2023-04-16T02:32:23;10.10;93.75
66835;HTU21D;53743;51.100;5.874;2023-04-16T02:33:24;10.11;93.95
66835;HTU21D;53743;51.100;5.874;2023-04-16T02:34:31;10.12;94.02
66835;HTU21D;53743;51.100;5.874;2023-04-16T02:35:34;10.11;94.05
66835;HTU21D;53743;51.100;5.874;2023-04-16T02:36:36;10.10;94.15
66835;HTU21D;53743;51.100;5.874;2023-04-16T02:37:37;10.12;94.07
66835;HTU21D;53743;51.100;5.874;2023-04-16T02:38:40;10.10;94.23
66835;HTU21D;53743;51.100;5.874;2023-04-16T02:39:42;10.16;93.82
66835;HTU21D;53743;51.100;5.874;2023-04-16T02:40:44;10.15;93.56
66835;HTU21D;53743;51.100;5.874;2023-04-16T02:41:45;10.19;93.98
66835;HTU21D;53743;51.100;5.874;2023-04-16T02:42:47;10.15;93.43
66835;HTU21D;53743;51.100;5.874;2023-04-16T02:43:48;10.14;93.53
66835;HTU21D;53743;51.100;5.874;2023-04-16T02:44:50;10.12;94.53
66835;HTU21D;53743;51.100;5.874;2023-04-16T02:45:51;10.11;93.78
66835;HTU21D;53743;51.100;5.874;2023-04-16T02:46:53;10.12;94.47
66835;HTU21D;53743;51.100;5.874;2023-04-16T02:47:54;10.11;94.01
66835;HTU21D;53743;51.100;5.874;2023-04-16T02:48:55;10.12;94.12
66835;HTU21D;53743;51.100;5.874;2023-04-16T02:49:57;10.13;94.19
66835;HTU21D;53743;51.100;5.874;2023-04-16T02:50:59;10.14;94.32
66835;HTU21D;53743;51.100;5.874;2023-04-16T02:52:00;10.13;94.27
66835;HTU21D;53743;51.100;5.874;2023-04-16T02:53:02;10.15;94.17
66835;HTU21D;53743;51.100;5.874;2023-04-16T02:54:03;10.14;94.10
66835;HTU21D;53743;51.100;5.874;2023-04-16T02:55:09;10.18;94.44
66835;HTU21D;53743;51.100;5.874;2023-04-16T02:56:10;10.18;94.23
66835;HTU21D;53743;51.100;5.874;2023-04-16T02:57:13;10.21;94.54
66835;HTU21D;53743;51.100;5.874;2023-04-16T02:58:13;10.22;94.23
66835;HTU21D;53743;51.100;5.874;2023-04-16T02:59:15;10.23;93.94
66835;HTU21D;53743;51.100;5.874;2023-04-16T03:00:17;10.25;93.87
66835;HTU21D;53743;51.100;5.874;2023-04-16T03:01:19;10.25;94.11
66835;HTU21D;53743;51.100;5.874;2023-04-16T03:02:20;10.27;93.86
66835;HTU21D;53743;51.100;5.874;2023-04-16T03:03:22;10.27;93.79
66835;HTU21D;53743;51.100;5.874;2023-04-16T03:04:23;10.26;94.07
66835;HTU21D;53743;51.100;5.874;2023-04-16T03:05:25;10.26;94.12
66835;HTU21D;53743;51.100;5.874;2023-04-16T03:06:25;10.27;94.13
66835;HTU21D;53743;51.100;5.874;2023-04-16T03:07:27;10.27;94.27
66835;HTU21D;53743;51.100;5.874;2023-04-16T03:08:28;10.29;94.21
66835;HTU21D;53743;51.100;5.874;2023-04-16T03:09:30;10.28;94.15
66835;HTU21D;53743;51.100;5.874;2023-04-16T03:10:33;10.31;93.90
66835;HTU21D;53743;51.100;5.874;2023-04-16T03:11:35;10.33;94.32
66835;HTU21D;53743;51.100;5.874;2023-04-16T03:12:36;10.34;93.90
66835;HTU21D;53743;51.100;5.874;2023-04-16T03:13:40;10.29;94.14
66835;HTU21D;53743;51.100;5.874;2023-04-16T03:14:41;10.27;94.27
66835;HTU21D;53743;51.100;5.874;2023-04-16T03:15:47;10.27;94.42
66835;HTU21D;53743;51.100;5.874;2023-04-16T03:16:48;10.27;94.16
66835;HTU21D;53743;51.100;5.874;2023-04-16T03:17:50;10.27;94.81
66835;HTU21D;53743;51.100;5.874;2023-04-16T03:18:51;10.28;94.21
66835;HTU21D;53743;51.100;5.874;2023-04-16T03:19:53;10.30;94.63
66835;HTU21D;53743;51.100;5.874;2023-04-16T03:20:54;10.33;94.07
66835;HTU21D;53743;51.100;5.874;2023-04-16T03:21:55;10.35;94.23
66835;HTU21D;53743;51.100;5.874;2023-04-16T03:22:56;10.33;94.25
66835;HTU21D;53743;51.100;5.874;2023-04-16T03:23:58;10.33;94.33
66835;HTU21D;53743;51.100;5.874;2023-04-16T03:24:59;10.29;94.32
66835;HTU21D;53743;51.100;5.874;2023-04-16T03:26:02;10.33;94.40
66835;HTU21D;53743;51.100;5.874;2023-04-16T03:27:03;10.34;94.07
66835;HTU21D;53743;51.100;5.874;2023-04-16T03:28:05;10.35;94.53
66835;HTU21D;53743;51.100;5.874;2023-04-16T03:29:06;10.36;94.51
66835;HTU21D;53743;51.100;5.874;2023-04-16T03:30:10;10.33;94.30
66835;HTU21D;53743;51.100;5.874;2023-04-16T03:31:11;10.36;94.04
66835;HTU21D;53743;51.100;5.874;2023-04-16T03:32:13;10.34;94.36
66835;HTU21D;53743;51.100;5.874;2023-04-16T03:33:14;10.33;94.28
66835;HTU21D;53743;51.100;5.874;2023-04-16T03:34:16;10.31;94.87
66835;HTU21D;53743;51.100;5.874;2023-04-16T03:35:17;10.36;94.74
66835;HTU21D;53743;51.100;5.874;2023-04-16T03:36:19;10.31;94.50
66835;HTU21D;53743;51.100;5.874;2023-04-16T03:37:22;10.28;94.69
66835;HTU21D;53743;51.100;5.874;2023-04-16T03:38:24;10.27;94.98
66835;HTU21D;53743;51.100;5.874;2023-04-16T03:39:28;10.28;94.90
66835;HTU21D;53743;51.100;5.874;2023-04-16T03:40:29;10.28;94.91
66835;HTU21D;53743;51.100;5.874;2023-04-16T03:41:33;10.27;94.99
66835;HTU21D;53743;51.100;5.874;2023-04-16T03:42:34;10.33;94.88
66835;HTU21D;53743;51.100;5.874;2023-04-16T03:43:36;10.35;94.69
66835;HTU21D;53743;51.100;5.874;2023-04-16T03:44:37;10.29;94.80
66835;HTU21D;53743;51.100;5.874;2023-04-16T03:45:43;10.28;95.78
66835;HTU21D;53743;51.100;5.874;2023-04-16T03:46:43;10.28;95.32
66835;HTU21D;53743;51.100;5.874;2023-04-16T03:47:45;10.27;95.33
66835;HTU21D;53743;51.100;5.874;2023-04-16T03:48:48;10.26;95.36
66835;HTU21D;53743;51.100;5.874;2023-04-16T03:49:51;10.27;95.49
66835;HTU21D;53743;51.100;5.874;2023-04-16T03:50:53;10.28;95.15
66835;HTU21D;53743;51.100;5.874;2023-04-16T03:51:55;10.29;95.12
66835;HTU21D;53743;51.100;5.874;2023-04-16T03:52:56;10.34;95.01
66835;HTU21D;53743;51.100;5.874;2023-04-16T03:53:57;10.34;95.22
66835;HTU21D;53743;51.100;5.874;2023-04-16T03:54:59;10.34;95.22
66835;HTU21D;53743;51.100;5.874;2023-04-16T03:56:05;10.36;95.29
66835;HTU21D;53743;51.100;5.874;2023-04-16T03:57:07;10.33;95.15
66835;HTU21D;53743;51.100;5.874;2023-04-16T03:58:09;10.36;95.14
66835;HTU21D;53743;51.100;5.874;2023-04-16T03:59:10;10.38;94.99
66835;HTU21D;53743;51.100;5.874;2023-04-16T04:00:12;10.41;95.09
66835;HTU21D;53743;51.100;5.874;2023-04-16T04:01:36;10.37;95.04
66835;HTU21D;53743;51.100;5.874;2023-04-16T04:02:38;10.36;94.92
66835;HTU21D;53743;51.100;5.874;2023-04-16T04:03:39;10.31;95.44
66835;HTU21D;53743;51.100;5.874;2023-04-16T04:04:41;10.34;95.20
66835;HTU21D;53743;51.100;5.874;2023-04-16T04:05:43;10.30;95.62
66835;HTU21D;53743;51.100;5.874;2023-04-16T04:06:48;10.30;95.32
66835;HTU21D;53743;51.100;5.874;2023-04-16T04:07:49;10.33;95.30
66835;HTU21D;53743;51.100;5.874;2023-04-16T04:08:51;10.30;95.50
66835;HTU21D;53743;51.100;5.874;2023-04-16T04:09:52;10.30;95.85
66835;HTU21D;53743;51.100;5.874;2023-04-16T04:10:54;10.28;95.58
66835;HTU21D;53743;51.100;5.874;2023-04-16T04:11:56;10.30;95.81
66835;HTU21D;53743;51.100;5.874;2023-04-16T04:13:01;10.31;95.94
66835;HTU21D;53743;51.100;5.874;2023-04-16T04:14:02;10.31;96.26
66835;HTU21D;53743;51.100;5.874;2023-04-16T04:15:05;10.31;95.91
66835;HTU21D;53743;51.100;5.874;2023-04-16T04:16:06;10.30;95.94
66835;HTU21D;53743;51.100;5.874;2023-04-16T04:17:09;10.29;96.12
66835;HTU21D;53743;51.100;5.874;2023-04-16T04:18:09;10.31;96.08
66835;HTU21D;53743;51.100;5.874;2023-04-16T04:19:11;10.34;96.17
66835;HTU21D;53743;51.100;5.874;2023-04-16T04:20:12;10.36;96.08
66835;HTU21D;53743;51.100;5.874;2023-04-16T04:21:18;10.36;95.78
66835;HTU21D;53743;51.100;5.874;2023-04-16T04:22:19;10.36;95.99
66835;HTU21D;53743;51.100;5.874;2023-04-16T04:23:20;10.35;96.23
66835;HTU21D;53743;51.100;5.874;2023-04-16T04:24:22;10.35;96.44
66835;HTU21D;53743;51.100;5.874;2023-04-16T04:25:24;10.30;96.05
66835;HTU21D;53743;51.100;5.874;2023-04-16T04:26:25;10.29;96.24
66835;HTU21D;53743;51.100;5.874;2023-04-16T04:27:27;10.30;96.62
66835;HTU21D;53743;51.100;5.874;2023-04-16T04:28:29;10.30;96.44
66835;HTU21D;53743;51.100;5.874;2023-04-16T04:29:32;10.30;96.03
66835;HTU21D;53743;51.100;5.874;2023-04-16T04:30:33;10.33;96.26
66835;HTU21D;53743;51.100;5.874;2023-04-16T04:31:36;10.34;96.15
66835;HTU21D;53743;51.100;5.874;2023-04-16T04:32:36;10.34;96.47
66835;HTU21D;53743;51.100;5.874;2023-04-16T04:33:38;10.34;96.31
66835;HTU21D;53743;51.100;5.874;2023-04-16T04:34:40;10.35;96.13
66835;HTU21D;53743;51.100;5.874;2023-04-16T04:35:43;10.39;96.39
66835;HTU21D;53743;51.100;5.874;2023-04-16T04:36:43;10.41;96.20
66835;HTU21D;53743;51.100;5.874;2023-04-16T04:37:47;10.37;96.61
66835;HTU21D;53743;51.100;5.874;2023-04-16T04:38:52;10.34;96.47
66835;HTU21D;53743;51.100;5.874;2023-04-16T04:39:54;10.33;96.51
66835;HTU21D;53743;51.100;5.874;2023-04-16T04:40:55;10.31;96.39
66835;HTU21D;53743;51.100;5.874;2023-04-16T04:41:58;10.33;96.42
66835;HTU21D;53743;51.100;5.874;2023-04-16T04:42:59;10.33;96.42
66835;HTU21D;53743;51.100;5.874;2023-04-16T04:44:02;10.33;96.55
66835;HTU21D;53743;51.100;5.874;2023-04-16T04:45:03;10.33;96.55
66835;HTU21D;53743;51.100;5.874;2023-04-16T04:46:07;10.34;96.42
66835;HTU21D;53743;51.100;5.874;2023-04-16T04:47:08;10.33;96.65
66835;HTU21D;53743;51.100;5.874;2023-04-16T04:48:10;10.34;96.45
66835;HTU21D;53743;51.100;5.874;2023-04-16T04:49:11;10.33;96.78
66835;HTU21D;53743;51.100;5.874;2023-04-16T04:50:12;10.33;96.70
66835;HTU21D;53743;51.100;5.874;2023-04-16T04:51:14;10.36;96.72
66835;HTU21D;53743;51.100;5.874;2023-04-16T04:52:17;10.40;96.78
66835;HTU21D;53743;51.100;5.874;2023-04-16T04:53:20;10.41;96.77
66835;HTU21D;53743;51.100;5.874;2023-04-16T04:54:22;10.41;96.55
66835;HTU21D;53743;51.100;5.874;2023-04-16T04:55:23;10.43;96.50
66835;HTU21D;53743;51.100;5.874;2023-04-16T04:56:25;10.42;96.46
66835;HTU21D;53743;51.100;5.874;2023-04-16T04:57:26;10.44;96.39
66835;HTU21D;53743;51.100;5.874;2023-04-16T04:58:28;10.45;96.19
66835;HTU21D;53743;51.100;5.874;2023-04-16T04:59:31;10.46;96.76
66835;HTU21D;53743;51.100;5.874;2023-04-16T05:00:34;10.44;96.74
66835;HTU21D;53743;51.100;5.874;2023-04-16T05:01:35;10.41;96.64
66835;HTU21D;53743;51.100;5.874;2023-04-16T05:02:37;10.38;96.65
66835;HTU21D;53743;51.100;5.874;2023-04-16T05:03:38;10.35;97.32
66835;HTU21D;53743;51.100;5.874;2023-04-16T05:04:40;10.31;97.00
66835;HTU21D;53743;51.100;5.874;2023-04-16T05:05:41;10.33;97.14
66835;HTU21D;53743;51.100;5.874;2023-04-16T05:06:43;10.31;97.25
66835;HTU21D;53743;51.100;5.874;2023-04-16T05:07:44;10.30;96.98
66835;HTU21D;53743;51.100;5.874;2023-04-16T05:08:45;10.29;97.27
66835;HTU21D;53743;51.100;5.874;2023-04-16T05:09:46;10.28;97.35
66835;HTU21D;53743;51.100;5.874;2023-04-16T05:10:48;10.28;97.33
66835;HTU21D;53743;51.100;5.874;2023-04-16T05:11:49;10.28;97.11
66835;HTU21D;53743;51.100;5.874;2023-04-16T05:12:50;10.29;97.42
66835;HTU21D;53743;51.100;5.874;2023-04-16T05:13:51;10.27;97.40
66835;HTU21D;53743;51.100;5.874;2023-04-16T05:14:54;10.30;97.52
66835;HTU21D;53743;51.100;5.874;2023-04-16T05:15:55;10.33;97.42
66835;HTU21D;53743;51.100;5.874;2023-04-16T05:16:57;10.33;97.03
66835;HTU21D;53743;51.100;5.874;2023-04-16T05:17:58;10.34;97.04
66835;HTU21D;53743;51.100;5.874;2023-04-16T05:19:00;10.34;97.46
66835;HTU21D;53743;51.100;5.874;2023-04-16T05:20:00;10.33;97.31
66835;HTU21D;53743;51.100;5.874;2023-04-16T05:21:03;10.34;97.51
66835;HTU21D;53743;51.100;5.874;2023-04-16T05:22:04;10.35;97.30
66835;HTU21D;53743;51.100;5.874;2023-04-16T05:23:05;10.34;97.47
66835;HTU21D;53743;51.100;5.874;2023-04-16T05:24:06;10.29;97.40
66835;HTU21D;53743;51.100;5.874;2023-04-16T05:25:08;10.25;97.99
66835;HTU21D;53743;51.100;5.874;2023-04-16T05:26:09;10.23;97.99
66835;HTU21D;53743;51.100;5.874;2023-04-16T05:27:11;10.25;98.02
66835;HTU21D;53743;51.100;5.874;2023-04-16T05:28:12;10.24;97.77
66835;HTU21D;53743;51.100;5.874;2023-04-16T05:29:13;10.23;98.24
66835;HTU21D;53743;51.100;5.874;2023-04-16T05:30:16;10.24;98.58
66835;HTU21D;53743;51.100;5.874;2023-04-16T05:31:18;10.22;98.20
66835;HTU21D;53743;51.100;5.874;2023-04-16T05:32:19;10.20;97.93
66835;HTU21D;53743;51.100;5.874;2023-04-16T05:33:21;10.23;98.27
66835;HTU21D;53743;51.100;5.874;2023-04-16T05:34:21;10.25;97.74
66835;HTU21D;53743;51.100;5.874;2023-04-16T05:35:23;10.25;97.68
66835;HTU21D;53743;51.100;5.874;2023-04-16T05:36:24;10.25;97.74
66835;HTU21D;53743;51.100;5.874;2023-04-16T05:37:26;10.25;97.79
66835;HTU21D;53743;51.100;5.874;2023-04-16T05:38:27;10.26;98.19
66835;HTU21D;53743;51.100;5.874;2023-04-16T05:39:28;10.27;98.22
66835;HTU21D;53743;51.100;5.874;2023-04-16T05:40:30;10.29;98.19
66835;HTU21D;53743;51.100;5.874;2023-04-16T05:41:32;10.31;98.52
66835;HTU21D;53743;51.100;5.874;2023-04-16T05:42:33;10.33;98.23
66835;HTU21D;53743;51.100;5.874;2023-04-16T05:43:34;10.36;98.12
66835;HTU21D;53743;51.100;5.874;2023-04-16T05:44:35;10.35;97.69
66835;HTU21D;53743;51.100;5.874;2023-04-16T05:45:38;10.36;97.81
66835;HTU21D;53743;51.100;5.874;2023-04-16T05:46:40;10.36;98.05
66835;HTU21D;53743;51.100;5.874;2023-04-16T05:47:42;10.34;98.16
66835;HTU21D;53743;51.100;5.874;2023-04-16T05:48:43;10.31;97.97
66835;HTU21D;53743;51.100;5.874;2023-04-16T05:49:45;10.28;97.97
66835;HTU21D;53743;51.100;5.874;2023-04-16T05:50:46;10.25;98.98
66835;HTU21D;53743;51.100;5.874;2023-04-16T05:51:48;10.26;98.32
66835;HTU21D;53743;51.100;5.874;2023-04-16T05:52:48;10.24;98.58
66835;HTU21D;53743;51.100;5.874;2023-04-16T05:53:50;10.26;98.68
66835;HTU21D;53743;51.100;5.874;2023-04-16T05:54:51;10.25;98.37
66835;HTU21D;53743;51.100;5.874;2023-04-16T05:55:53;10.26;98.71
66835;HTU21D;53743;51.100;5.874;2023-04-16T05:56:53;10.27;98.56
66835;HTU21D;53743;51.100;5.874;2023-04-16T05:57:56;10.27;98.60
66835;HTU21D;53743;51.100;5.874;2023-04-16T05:58:56;10.28;98.48
66835;HTU21D;53743;51.100;5.874;2023-04-16T05:59:58;10.29;98.46
66835;HTU21D;53743;51.100;5.874;2023-04-16T06:01:01;10.31;98.26
66835;HTU21D;53743;51.100;5.874;2023-04-16T06:02:02;10.30;98.09
66835;HTU21D;53743;51.100;5.874;2023-04-16T06:03:03;10.29;98.29
66835;HTU21D;53743;51.100;5.874;2023-04-16T06:04:05;10.27;98.47
66835;HTU21D;53743;51.100;5.874;2023-04-16T06:05:06;10.25;98.80
66835;HTU21D;53743;51.100;5.874;2023-04-16T06:06:08;10.23;98.43
66835;HTU21D;53743;51.100;5.874;2023-04-16T06:07:09;10.23;98.28
66835;HTU21D;53743;51.100;5.874;2023-04-16T06:08:11;10.24;98.42
66835;HTU21D;53743;51.100;5.874;2023-04-16T06:09:11;10.25;98.61
66835;HTU21D;53743;51.100;5.874;2023-04-16T06:10:13;10.26;98.73
66835;HTU21D;53743;51.100;5.874;2023-04-16T06:11:14;10.28;98.74
66835;HTU21D;53743;51.100;5.874;2023-04-16T06:12:16;10.33;98.64
66835;HTU21D;53743;51.100;5.874;2023-04-16T06:13:17;10.30;98.80
66835;HTU21D;53743;51.100;5.874;2023-04-16T06:14:19;10.31;98.72
66835;HTU21D;53743;51.100;5.874;2023-04-16T06:15:20;10.31;98.80
66835;HTU21D;53743;51.100;5.874;2023-04-16T06:16:23;10.34;98.53
66835;HTU21D;53743;51.100;5.874;2023-04-16T06:17:24;10.36;98.15
66835;HTU21D;53743;51.100;5.874;2023-04-16T06:18:26;10.39;98.26
66835;HTU21D;53743;51.100;5.874;2023-04-16T06:19:27;10.38;98.24
66835;HTU21D;53743;51.100;5.874;2023-04-16T06:20:29;10.38;98.55
66835;HTU21D;53743;51.100;5.874;2023-04-16T06:21:30;10.36;98.42
66835;HTU21D;53743;51.100;5.874;2023-04-16T06:22:33;10.34;98.75
66835;HTU21D;53743;51.100;5.874;2023-04-16T06:23:34;10.40;98.36
66835;HTU21D;53743;51.100;5.874;2023-04-16T06:24:36;10.38;98.24
66835;HTU21D;53743;51.100;5.874;2023-04-16T06:25:37;10.36;98.32